Time;durP1;ratioP1;P1;durP2;ratioP2;P2;SDS_P1;SDS_P2;PMS_P1;PMS_P2;Temp;Humidity;BMP_temperature;BMP_pressure;BME280_temperature;BME280_humidity;BME280_pressure;Samples;Min_cycle;Max_cycle;Signal;HPM_P1;HPM_P2
2022/01/30 00:00:56;;;;;;;0.50;0.40;;;5.70;99.90;;;;;;4991526;28;20281;-74
2022/01/30 00:03:22;;;;;;;0.60;0.40;;;5.70;99.90;;;;;;4992910;28;20213;-75
2022/01/30 00:05:48;;;;;;;0.70;0.40;;;5.70;99.90;;;;;;4992705;28;20581;-74
2022/01/30 00:08:14;;;;;;;0.80;0.50;;;5.70;99.90;;;;;;4992702;28;20463;-75
2022/01/30 00:10:41;;;;;;;0.60;0.50;;;5.80;99.90;;;;;;4991136;28;20185;-76
2022/01/30 00:13:13;;;;;;;3.90;0.40;;;5.80;99.90;;;;;;4992134;28;20448;-75
2022/01/30 00:15:51;;;;;;;0.80;0.50;;;5.80;99.90;;;;;;4992028;28;20193;-74
2022/01/30 00:21:04;;;;;;;0.60;0.47;;;5.90;99.90;;;;;;4991949;28;20501;-75
2022/01/30 00:23:32;;;;;;;0.70;0.40;;;5.90;99.90;;;;;;4991881;28;20413;-73
2022/01/30 00:25:58;;;;;;;0.50;0.37;;;5.80;99.90;;;;;;4992037;28;20996;-74
2022/01/30 00:28:26;;;;;;;0.50;0.30;;;5.80;99.90;;;;;;4992038;28;20416;-74
2022/01/30 00:30:53;;;;;;;0.60;0.40;;;5.80;99.90;;;;;;4991938;28;20721;-74
2022/01/30 00:33:19;;;;;;;1.33;0.63;;;5.80;99.90;;;;;;4991974;28;20416;-75
2022/01/30 00:35:44;;;;;;;0.50;0.40;;;5.90;99.90;;;;;;4992011;28;20516;-73
2022/01/30 00:38:15;;;;;;;0.60;0.40;;;5.90;99.90;;;;;;4991968;28;20624;-74
2022/01/30 00:40:42;;;;;;;0.57;0.37;;;5.90;99.90;;;;;;4992537;28;20731;-74
2022/01/30 00:43:08;;;;;;;0.60;0.40;;;5.90;99.90;;;;;;4992466;28;20413;-74
2022/01/30 00:45:34;;;;;;;0.50;0.30;;;6.00;99.90;;;;;;4992553;28;20905;-74
2022/01/30 00:48:00;;;;;;;0.60;0.50;;;6.00;99.90;;;;;;4991678;28;20431;-75
2022/01/30 00:50:26;;;;;;;0.60;0.40;;;6.00;99.90;;;;;;4992937;28;20918;-74
2022/01/30 00:52:55;;;;;;;1.00;0.50;;;5.90;99.90;;;;;;4992650;28;20444;-76
2022/01/30 00:55:26;;;;;;;0.67;0.60;;;5.90;99.90;;;;;;4992820;28;20417;-75
2022/01/30 00:57:53;;;;;;;0.60;0.50;;;5.90;99.90;;;;;;4992475;28;20445;-75
2022/01/30 01:00:18;;;;;;;0.63;0.50;;;5.90;99.90;;;;;;4991338;28;20421;-75
2022/01/30 01:02:45;;;;;;;0.70;0.70;;;5.90;99.90;;;;;;4992536;28;20309;-75
2022/01/30 01:05:10;;;;;;;0.77;0.50;;;5.80;99.90;;;;;;4992549;28;20194;-75
2022/01/30 01:07:41;;;;;;;3.00;0.57;;;5.80;99.90;;;;;;4992392;28;20441;-74
2022/01/30 01:10:13;;;;;;;1.97;0.80;;;5.80;99.90;;;;;;4991368;28;20646;-75
2022/01/30 01:23:26;;;;;;;1.00;0.60;;;5.80;99.90;;;;;;4992035;28;20923;-75
2022/01/30 01:25:56;;;;;;;0.60;0.60;;;5.80;99.90;;;;;;4991794;28;20536;-75
2022/01/30 01:28:22;;;;;;;0.60;0.60;;;5.80;99.90;;;;;;4991778;28;20911;-76
2022/01/30 01:30:47;;;;;;;0.97;0.80;;;5.90;99.90;;;;;;4991660;28;20560;-75
2022/01/30 01:33:14;;;;;;;0.70;0.70;;;5.90;99.90;;;;;;4991273;28;20431;-76
2022/01/30 01:35:40;;;;;;;0.60;0.57;;;5.80;99.90;;;;;;4991396;28;20235;-75
2022/01/30 01:38:11;;;;;;;0.60;0.60;;;5.80;99.90;;;;;;4991110;28;20982;-74
2022/01/30 01:40:37;;;;;;;2.43;0.80;;;5.80;99.90;;;;;;4991100;28;20448;-74
2022/01/30 01:43:03;;;;;;;1.70;0.87;;;5.80;99.90;;;;;;4990838;28;20421;-74
2022/01/30 01:45:35;;;;;;;0.60;0.60;;;5.80;99.90;;;;;;4990894;28;20835;-74
2022/01/30 01:48:07;;;;;;;2.07;0.87;;;5.80;99.90;;;;;;4990688;28;20177;-74
2022/01/30 01:50:39;;;;;;;0.70;0.60;;;5.90;99.90;;;;;;4990590;28;20507;-76
2022/01/30 01:53:14;;;;;;;3.00;0.70;;;5.80;99.90;;;;;;4990377;28;20448;-75
2022/01/30 01:55:41;;;;;;;1.00;0.80;;;5.90;99.90;;;;;;4990338;28;20416;-75
2022/01/30 01:58:08;;;;;;;1.00;1.00;;;5.80;99.90;;;;;;4988928;28;20511;-74
2022/01/30 02:00:35;;;;;;;0.70;0.70;;;5.90;99.90;;;;;;4990530;28;20421;-74
2022/01/30 02:03:02;;;;;;;0.70;0.70;;;5.90;99.90;;;;;;4990860;28;20429;-75
2022/01/30 02:05:30;;;;;;;0.70;0.70;;;5.90;99.90;;;;;;4989485;28;20421;-75
2022/01/30 02:08:43;;;;;;;0.70;0.60;;;6.00;99.90;;;;;;4989324;28;20433;-76
2022/01/30 02:26:55;;;;;;;1.10;1.00;;;5.90;99.90;;;;;;4989761;28;20198;-76
2022/01/30 02:29:20;;;;;;;2.00;1.80;;;5.90;99.90;;;;;;4989878;28;20432;-76
2022/01/30 02:31:46;;;;;;;0.90;0.90;;;5.80;99.90;;;;;;4989695;28;20192;-77
2022/01/30 02:34:12;;;;;;;0.87;0.87;;;5.80;99.90;;;;;;4988177;28;20194;-77
2022/01/30 02:36:50;;;;;;;2.07;1.00;;;5.80;99.90;;;;;;4989870;28;20214;-76
2022/01/30 02:39:17;;;;;;;1.00;0.83;;;5.80;99.90;;;;;;4989441;28;20212;-76
2022/01/30 02:41:43;;;;;;;3.23;1.07;;;5.70;99.90;;;;;;4988027;28;20425;-76
2022/01/30 02:44:18;;;;;;;0.90;0.90;;;5.70;99.90;;;;;;4989356;28;20491;-75
2022/01/30 02:46:47;;;;;;;1.57;1.03;;;5.70;99.90;;;;;;4989416;28;21059;-75
2022/01/30 02:51:50;;;;;;;1.77;0.90;;;5.60;99.90;;;;;;4989278;28;20433;-74
2022/01/30 02:54:16;;;;;;;1.03;1.03;;;5.60;99.90;;;;;;4989320;28;20445;-75
2022/01/30 02:56:42;;;;;;;1.33;1.03;;;5.60;99.90;;;;;;4989454;28;20534;-77
2022/01/30 02:59:08;;;;;;;2.50;0.90;;;5.60;99.90;;;;;;4989201;28;20571;-75
2022/01/30 03:01:34;;;;;;;0.93;0.90;;;5.50;99.90;;;;;;4987917;28;20184;-75
2022/01/30 03:04:00;;;;;;;1.80;1.07;;;5.50;99.90;;;;;;4989288;28;20479;-75
2022/01/30 03:06:27;;;;;;;1.13;1.03;;;5.50;99.90;;;;;;4989266;28;20448;-75
2022/01/30 03:08:52;;;;;;;1.10;1.00;;;5.50;99.90;;;;;;4989301;28;20898;-76
2022/01/30 03:11:18;;;;;;;1.10;0.83;;;5.50;99.90;;;;;;4987598;28;20505;-75
2022/01/30 03:13:44;;;;;;;1.13;1.07;;;5.50;99.90;;;;;;4971412;28;20244;-75
2022/01/30 03:16:09;;;;;;;1.40;1.30;;;5.50;99.90;;;;;;4989092;28;20253;-75
2022/01/30 03:18:36;;;;;;;1.43;1.33;;;5.50;99.90;;;;;;4988977;28;20216;-75
2022/01/30 03:21:02;;;;;;;2.70;1.50;;;5.50;99.90;;;;;;4989188;28;20400;-75
2022/01/30 03:23:29;;;;;;;1.17;1.17;;;5.50;99.90;;;;;;4989056;28;21063;-75
2022/01/30 03:25:58;;;;;;;3.95;1.00;;;5.60;99.90;;;;;;4988991;28;20941;-75
2022/01/30 03:28:24;;;;;;;1.23;1.13;;;5.50;99.90;;;;;;4987720;28;20190;-75
2022/01/30 03:30:54;;;;;;;1.57;1.40;;;5.50;99.90;;;;;;4988981;28;20419;-75
2022/01/30 03:33:20;;;;;;;1.57;1.47;;;5.50;99.90;;;;;;4990501;28;20428;-76
2022/01/30 03:35:46;;;;;;;2.23;1.20;;;5.50;99.90;;;;;;4992546;28;20859;-74
2022/01/30 03:38:14;;;;;;;1.70;1.60;;;5.60;99.90;;;;;;4991103;28;20479;-74
2022/01/30 03:40:39;;;;;;;1.50;1.40;;;5.50;99.90;;;;;;4992613;28;20212;-76
2022/01/30 03:43:05;;;;;;;1.47;1.37;;;5.50;99.90;;;;;;4992617;28;20436;-74
2022/01/30 03:45:31;;;;;;;1.63;1.53;;;5.50;99.90;;;;;;4993745;28;20689;-78
2022/01/30 03:47:56;;;;;;;2.20;1.40;;;5.50;99.90;;;;;;4984680;28;20229;-75
2022/01/30 03:50:23;;;;;;;1.13;1.03;;;5.50;99.90;;;;;;5001319;28;20600;-75
2022/01/30 03:52:49;;;;;;;1.35;1.25;;;5.50;99.90;;;;;;4992311;28;20335;-75
2022/01/30 03:55:14;;;;;;;1.47;1.37;;;5.60;99.90;;;;;;4992470;28;20265;-75
2022/01/30 03:57:40;;;;;;;2.13;1.30;;;5.50;99.90;;;;;;4992324;28;20670;-76
2022/01/30 04:00:06;;;;;;;1.93;1.83;;;5.50;99.90;;;;;;4992379;28;20220;-75
2022/01/30 04:02:33;;;;;;;1.47;1.30;;;5.50;99.90;;;;;;4992192;28;20297;-75
2022/01/30 04:04:59;;;;;;;1.47;1.10;;;5.50;99.90;;;;;;4993126;28;20417;-75
2022/01/30 04:07:26;;;;;;;1.60;1.50;;;5.50;99.90;;;;;;4992031;28;20440;-74
2022/01/30 04:09:52;;;;;;;1.30;1.20;;;5.50;99.90;;;;;;4992171;28;20189;-75
2022/01/30 04:12:18;;;;;;;1.00;1.00;;;5.50;99.90;;;;;;4992021;28;20421;-75
2022/01/30 04:14:45;;;;;;;1.40;1.30;;;5.50;99.90;;;;;;4990429;28;20445;-75
2022/01/30 04:17:13;;;;;;;1.00;1.00;;;5.50;99.90;;;;;;4991791;28;20459;-75
2022/01/30 04:19:39;;;;;;;1.30;1.07;;;5.50;99.90;;;;;;4991772;28;20214;-74
2022/01/30 04:22:05;;;;;;;2.20;1.00;;;5.40;99.90;;;;;;4991845;28;20507;-74
2022/01/30 04:24:31;;;;;;;0.93;0.93;;;5.50;99.90;;;;;;4991856;28;20425;-75
2022/01/30 04:26:57;;;;;;;1.13;1.02;;;5.40;99.90;;;;;;4991622;28;20451;-74
2022/01/30 04:29:23;;;;;;;0.80;0.80;;;5.40;99.90;;;;;;4991758;28;20186;-74
2022/01/30 04:31:50;;;;;;;1.00;1.00;;;5.40;99.90;;;;;;4991717;28;20189;-75
2022/01/30 04:34:16;;;;;;;1.00;0.90;;;5.40;99.90;;;;;;4991868;28;20441;-74
2022/01/30 04:37:00;;;;;;;1.13;0.60;;;5.40;99.90;;;;;;4991613;28;20516;-74
2022/01/30 04:53:07;;;;;;;0.70;0.67;;;5.30;99.90;;;;;;4991149;28;20459;-76
2022/01/30 05:05:58;;;;;;;1.30;0.77;;;5.20;99.90;;;;;;4993004;28;20435;-78
2022/01/30 05:08:24;;;;;;;0.80;0.70;;;5.20;99.90;;;;;;4994626;28;20424;-77
2022/01/30 05:10:56;;;;;;;0.90;0.60;;;5.20;99.90;;;;;;4992191;28;20428;-81
2022/01/30 05:13:25;;;;;;;1.57;0.83;;;5.30;99.90;;;;;;4996998;28;20436;-79
2022/01/30 05:15:51;;;;;;;1.53;0.73;;;5.20;99.90;;;;;;4979934;28;20466;-78
2022/01/30 05:18:25;;;;;;;0.90;0.63;;;5.20;99.90;;;;;;4994720;28;20901;-78
2022/01/30 05:20:52;;;;;;;0.70;0.60;;;5.20;99.90;;;;;;4991347;28;20435;-78
2022/01/30 05:23:18;;;;;;;2.93;0.80;;;5.20;99.90;;;;;;4993448;28;20190;-77
2022/01/30 05:25:48;;;;;;;0.80;0.80;;;5.20;99.90;;;;;;4993977;28;20442;-78
2022/01/30 05:28:15;;;;;;;0.70;0.60;;;5.20;99.90;;;;;;4991750;28;20467;-77
2022/01/30 05:30:41;;;;;;;1.33;0.60;;;5.20;99.90;;;;;;4991409;28;20667;-77
2022/01/30 05:33:07;;;;;;;0.70;0.60;;;5.20;99.90;;;;;;4990398;28;20424;-77
2022/01/30 05:35:33;;;;;;;0.70;0.67;;;5.20;99.90;;;;;;4989108;28;20437;-78
2022/01/30 05:38:00;;;;;;;0.63;0.60;;;5.20;99.90;;;;;;4990730;28;20424;-77
2022/01/30 05:40:26;;;;;;;0.60;0.50;;;5.20;99.90;;;;;;4989114;28;20420;-77
2022/01/30 05:42:52;;;;;;;1.30;0.87;;;5.20;99.90;;;;;;4990826;28;21252;-78
2022/01/30 05:47:57;;;;;;;0.70;0.70;;;5.20;99.90;;;;;;4990262;28;20796;-77
2022/01/30 05:50:23;;;;;;;0.70;0.70;;;5.20;99.90;;;;;;4991890;28;20416;-79
2022/01/30 05:52:49;;;;;;;2.20;0.83;;;5.20;99.90;;;;;;4977510;28;20277;-78
2022/01/30 05:55:15;;;;;;;0.70;0.50;;;5.30;99.90;;;;;;4997187;28;20504;-79
2022/01/30 05:57:40;;;;;;;0.70;0.60;;;5.20;99.90;;;;;;4994124;28;20753;-81
2022/01/30 06:00:09;;;;;;;0.60;0.60;;;5.10;99.90;;;;;;4976194;28;20229;-79
2022/01/30 06:02:35;;;;;;;0.90;0.73;;;5.30;99.90;;;;;;4991739;28;20178;-80
2022/01/30 06:05:01;;;;;;;0.70;0.70;;;5.30;99.90;;;;;;4992854;28;20424;-80
2022/01/30 06:07:30;;;;;;;1.10;1.00;;;5.30;99.90;;;;;;4992158;28;20599;-79
2022/01/30 06:09:56;;;;;;;0.60;0.50;;;5.40;99.90;;;;;;4990135;28;20189;-79
2022/01/30 06:12:22;;;;;;;0.87;0.87;;;5.40;99.90;;;;;;4990650;28;20424;-78
2022/01/30 06:14:47;;;;;;;0.70;0.60;;;5.30;99.90;;;;;;4991973;28;20545;-79
2022/01/30 06:17:14;;;;;;;0.80;0.80;;;5.40;99.90;;;;;;4990556;28;20213;-80
2022/01/30 06:19:40;;;;;;;0.80;0.73;;;5.30;99.90;;;;;;4991625;28;20221;-80
2022/01/30 06:22:05;;;;;;;2.10;0.77;;;5.30;99.90;;;;;;4989002;28;20421;-77
2022/01/30 06:24:31;;;;;;;1.17;1.07;;;5.40;99.90;;;;;;4989667;28;20666;-77
2022/01/30 06:26:57;;;;;;;1.23;0.90;;;5.40;99.90;;;;;;4989697;28;20251;-76
2022/01/30 06:29:22;;;;;;;1.70;0.80;;;5.40;99.90;;;;;;4989494;28;20599;-76
2022/01/30 06:31:48;;;;;;;1.83;0.90;;;5.40;99.90;;;;;;4989415;28;20186;-77
2022/01/30 06:34:14;;;;;;;2.77;1.10;;;5.40;99.90;;;;;;4988435;28;20181;-76
2022/01/30 06:36:39;;;;;;;1.70;0.93;;;5.40;99.90;;;;;;4989385;28;20225;-75
2022/01/30 06:39:05;;;;;;;2.97;1.10;;;5.30;99.90;;;;;;4989349;28;20993;-76
2022/01/30 06:41:31;;;;;;;2.30;1.00;;;5.40;99.90;;;;;;4987916;28;20185;-75
2022/01/30 06:43:56;;;;;;;2.07;1.10;;;5.40;99.90;;;;;;4989465;28;20647;-77
2022/01/30 06:46:22;;;;;;;6.20;1.80;;;5.40;99.90;;;;;;4989362;28;20198;-77
2022/01/30 06:48:47;;;;;;;8.90;1.83;;;5.40;99.90;;;;;;4989218;28;20192;-77
2022/01/30 06:51:13;;;;;;;5.87;1.20;;;5.40;99.90;;;;;;4987882;28;20608;-77
2022/01/30 06:53:39;;;;;;;5.70;1.37;;;5.30;99.90;;;;;;4987641;28;20652;-77
2022/01/30 06:56:06;;;;;;;2.20;0.90;;;5.40;99.90;;;;;;4989262;28;20213;-77
2022/01/30 06:58:32;;;;;;;2.90;1.50;;;5.40;99.90;;;;;;4987713;28;20213;-77
2022/01/30 07:00:57;;;;;;;2.80;0.80;;;5.40;99.90;;;;;;4989150;28;20421;-77
2022/01/30 07:03:23;;;;;;;1.80;1.00;;;5.40;99.90;;;;;;4989259;28;20232;-77
2022/01/30 07:05:49;;;;;;;5.83;2.17;;;5.40;99.90;;;;;;4987841;28;20233;-77
2022/01/30 07:08:14;;;;;;;2.80;1.00;;;5.40;99.90;;;;;;4992598;28;20261;-78
2022/01/30 07:10:40;;;;;;;4.40;1.77;;;5.40;99.90;;;;;;4992111;28;20192;-77
2022/01/30 07:13:07;;;;;;;4.60;1.67;;;5.40;99.90;;;;;;4993313;28;20268;-77
2022/01/30 07:15:33;;;;;;;4.07;1.70;;;5.40;99.90;;;;;;4992102;28;20437;-77
2022/01/30 07:17:59;;;;;;;5.10;1.70;;;5.50;99.90;;;;;;4993429;28;20419;-77
2022/01/30 07:20:24;;;;;;;9.17;1.50;;;5.30;99.90;;;;;;4993174;28;20479;-77
2022/01/30 07:22:50;;;;;;;5.03;2.20;;;5.30;99.90;;;;;;4993230;28;20189;-78
2022/01/30 07:25:16;;;;;;;5.27;1.67;;;5.30;99.90;;;;;;4993356;28;20216;-78
2022/01/30 07:27:42;;;;;;;8.83;1.90;;;5.30;99.90;;;;;;4993282;28;20444;-77
2022/01/30 07:30:09;;;;;;;4.63;1.80;;;5.30;99.90;;;;;;4993191;28;20186;-77
2022/01/30 07:32:34;;;;;;;11.33;1.93;;;5.30;99.90;;;;;;4991544;28;21020;-77
2022/01/30 07:35:00;;;;;;;6.27;2.37;;;5.30;99.90;;;;;;4993193;28;20428;-77
2022/01/30 07:37:27;;;;;;;11.83;1.93;;;5.40;99.90;;;;;;4993199;28;20968;-78
2022/01/30 07:39:53;;;;;;;4.20;1.73;;;5.30;99.90;;;;;;4992237;28;20468;-78
2022/01/30 07:42:19;;;;;;;12.00;1.80;;;5.30;99.90;;;;;;4992977;28;20413;-77
2022/01/30 07:44:45;;;;;;;5.50;2.30;;;5.30;99.90;;;;;;4991542;28;20428;-77
2022/01/30 07:47:11;;;;;;;4.60;2.03;;;5.30;99.90;;;;;;4991346;28;20263;-77
2022/01/30 07:49:36;;;;;;;8.33;2.47;;;5.40;99.90;;;;;;4975632;28;20439;-77
2022/01/30 07:52:02;;;;;;;7.43;2.10;;;5.40;99.90;;;;;;4991136;28;20547;-77
2022/01/30 07:54:31;;;;;;;9.10;2.30;;;5.40;99.90;;;;;;4992729;28;20190;-77
2022/01/30 07:56:57;;;;;;;4.30;1.90;;;5.40;99.90;;;;;;4991040;28;20455;-77
2022/01/30 07:59:23;;;;;;;8.20;2.47;;;5.40;99.90;;;;;;4993574;28;20464;-78
2022/01/30 08:01:49;;;;;;;7.23;1.77;;;5.60;99.90;;;;;;4991227;28;20186;-77
2022/01/30 08:04:14;;;;;;;6.17;2.23;;;5.50;99.90;;;;;;4992032;28;20239;-77
2022/01/30 08:06:40;;;;;;;14.63;2.40;;;5.50;99.90;;;;;;4990313;28;20267;-77
2022/01/30 08:09:05;;;;;;;2.33;2.00;;;5.50;99.90;;;;;;4991424;28;20186;-77
2022/01/30 08:11:31;;;;;;;7.20;1.63;;;5.50;99.90;;;;;;4991710;28;20181;-77
2022/01/30 08:13:57;;;;;;;4.87;2.10;;;5.50;99.90;;;;;;4991699;28;20186;-77
2022/01/30 08:16:24;;;;;;;3.83;1.23;;;5.50;99.90;;;;;;4992648;28;20217;-78
2022/01/30 08:18:49;;;;;;;4.30;1.70;;;5.60;99.90;;;;;;4974390;28;20681;-77
2022/01/30 08:21:15;;;;;;;5.20;1.47;;;5.60;99.90;;;;;;4991622;28;20425;-76
2022/01/30 08:23:41;;;;;;;6.33;1.67;;;5.60;99.90;;;;;;4991536;28;20181;-77
2022/01/30 08:26:06;;;;;;;2.10;1.47;;;5.60;99.90;;;;;;4990009;28;20845;-77
2022/01/30 08:28:32;;;;;;;3.63;1.17;;;5.40;99.90;;;;;;4991660;28;20707;-77
2022/01/30 08:30:58;;;;;;;1.97;1.20;;;5.60;99.90;;;;;;4990337;28;20228;-77
2022/01/30 08:33:23;;;;;;;2.83;1.20;;;5.60;99.90;;;;;;4990114;28;20549;-77
2022/01/30 08:35:50;;;;;;;5.63;1.43;;;5.60;99.90;;;;;;4991309;28;20197;-77
2022/01/30 08:38:18;;;;;;;5.83;1.33;;;5.70;99.90;;;;;;4989774;28;20188;-77
2022/01/30 08:40:45;;;;;;;3.83;1.93;;;5.60;99.90;;;;;;4989954;28;20469;-77
2022/01/30 08:43:11;;;;;;;5.80;1.50;;;5.60;99.90;;;;;;4991212;28;20413;-77
2022/01/30 08:45:37;;;;;;;1.83;1.17;;;5.60;99.90;;;;;;4991185;28;20423;-77
2022/01/30 08:48:03;;;;;;;9.13;2.33;;;5.60;99.90;;;;;;4991766;28;20213;-77
2022/01/30 08:50:29;;;;;;;7.97;1.50;;;5.60;99.90;;;;;;4990952;28;20424;-77
2022/01/30 08:52:54;;;;;;;3.57;2.03;;;5.60;99.90;;;;;;4990351;28;20459;-77
2022/01/30 08:55:20;;;;;;;3.43;1.60;;;5.50;99.90;;;;;;4990304;28;20196;-77
2022/01/30 08:57:46;;;;;;;2.60;1.53;;;5.50;99.90;;;;;;4990287;28;20667;-77
2022/01/30 09:00:14;;;;;;;7.70;2.63;;;5.50;99.90;;;;;;4990430;28;20456;-77
2022/01/30 09:02:40;;;;;;;3.67;1.67;;;5.60;99.90;;;;;;4989990;28;20457;-77
2022/01/30 09:05:07;;;;;;;3.60;1.93;;;5.60;99.90;;;;;;4988641;28;20468;-78
2022/01/30 09:07:34;;;;;;;6.30;2.90;;;5.60;99.90;;;;;;4990287;28;20441;-77
2022/01/30 09:09:59;;;;;;;7.20;2.10;;;5.50;99.90;;;;;;4991342;28;20498;-76
2022/01/30 09:12:25;;;;;;;9.13;2.67;;;5.50;99.90;;;;;;4990400;28;20459;-76
2022/01/30 09:14:51;;;;;;;7.07;2.50;;;5.50;99.90;;;;;;4989261;28;20220;-77
2022/01/30 09:17:17;;;;;;;7.23;2.53;;;5.50;99.90;;;;;;4990450;28;20209;-77
2022/01/30 09:19:45;;;;;;;4.33;2.37;;;5.50;99.90;;;;;;4991160;28;20464;-77
2022/01/30 09:22:13;;;;;;;10.13;2.83;;;5.60;99.90;;;;;;4991078;28;20420;-77
2022/01/30 09:24:39;;;;;;;11.23;3.10;;;5.60;99.90;;;;;;4989020;28;20429;-77
2022/01/30 09:27:06;;;;;;;7.87;3.07;;;5.70;99.90;;;;;;4990370;28;20507;-77
2022/01/30 09:29:33;;;;;;;5.97;3.30;;;5.70;99.90;;;;;;4989043;28;20418;-77
2022/01/30 09:32:00;;;;;;;5.83;2.50;;;5.70;99.90;;;;;;4989085;28;20770;-77
2022/01/30 09:34:26;;;;;;;8.87;3.30;;;5.80;99.90;;;;;;4988485;28;20436;-76
2022/01/30 09:36:52;;;;;;;13.03;3.07;;;5.70;99.90;;;;;;4989923;28;20433;-76
2022/01/30 09:39:17;;;;;;;7.10;2.70;;;5.70;99.90;;;;;;4990057;28;20580;-77
2022/01/30 09:41:44;;;;;;;18.07;3.57;;;5.60;99.90;;;;;;4987831;28;20196;-77
2022/01/30 09:44:11;;;;;;;8.60;3.00;;;5.60;99.90;;;;;;4988098;28;20185;-77
2022/01/30 09:46:42;;;;;;;12.53;2.60;;;5.50;99.90;;;;;;4989513;28;21243;-77
2022/01/30 09:49:12;;;;;;;14.77;3.17;;;5.50;99.90;;;;;;4989711;28;20431;-77
2022/01/30 09:51:39;;;;;;;9.40;3.20;;;5.40;99.90;;;;;;4988203;28;20429;-77
2022/01/30 09:54:06;;;;;;;9.17;3.10;;;5.50;99.90;;;;;;4989395;28;20427;-77
2022/01/30 09:56:32;;;;;;;20.33;2.80;;;5.40;99.90;;;;;;4989641;28;20527;-77
2022/01/30 09:58:58;;;;;;;10.10;2.83;;;5.40;99.90;;;;;;4988646;28;21184;-77
2022/01/30 10:01:33;;;;;;;10.50;2.83;;;5.50;99.90;;;;;;4989156;28;20468;-76
2022/01/30 10:03:59;;;;;;;11.53;3.40;;;5.70;99.90;;;;;;4987663;28;20188;-76
2022/01/30 10:06:31;;;;;;;10.10;4.17;;;5.80;99.90;;;;;;4988814;28;20494;-76
2022/01/30 10:08:59;;;;;;;11.80;3.37;;;5.90;99.90;;;;;;4989199;28;20435;-76
2022/01/30 10:11:46;;;;;;;15.10;3.10;;;5.90;99.90;;;;;;4989393;28;20413;-77
2022/01/30 10:14:16;;;;;;;13.60;3.40;;;6.00;99.90;;;;;;4989852;28;20428;-77
2022/01/30 10:16:42;;;;;;;11.93;3.40;;;6.00;99.90;;;;;;4989505;28;20528;-76
2022/01/30 10:19:19;;;;;;;14.17;3.40;;;6.00;99.90;;;;;;4989702;28;20543;-76
2022/01/30 10:21:46;;;;;;;11.40;4.37;;;6.00;99.90;;;;;;4989569;28;20491;-76
2022/01/30 10:24:23;;;;;;;15.57;4.57;;;6.00;99.90;;;;;;4988294;28;20421;-76
2022/01/30 10:26:51;;;;;;;9.03;3.00;;;6.00;99.90;;;;;;4988382;28;21032;-76
2022/01/30 10:29:18;;;;;;;11.40;2.93;;;6.10;99.90;;;;;;4990114;28;20807;-76
2022/01/30 10:32:07;;;;;;;11.10;3.90;;;6.00;99.90;;;;;;4990057;28;20421;-76
2022/01/30 10:34:35;;;;;;;22.77;7.00;;;6.00;99.90;;;;;;4989998;28;20413;-77
2022/01/30 10:37:13;;;;;;;20.53;7.20;;;6.00;99.90;;;;;;4988895;28;20793;-76
2022/01/30 10:40:06;;;;;;;16.00;4.47;;;6.00;99.90;;;;;;4990056;28;20486;-77
2022/01/30 10:42:45;;;;;;;9.37;3.13;;;6.10;99.90;;;;;;4972529;28;21031;-76
2022/01/30 10:45:13;;;;;;;12.13;3.77;;;6.10;99.90;;;;;;4989787;28;20420;-77
2022/01/30 10:47:40;;;;;;;21.00;6.67;;;6.20;99.90;;;;;;4955933;28;20460;-77
2022/01/30 10:50:16;;;;;;;17.70;6.60;;;6.10;99.90;;;;;;4989326;28;20432;-77
2022/01/30 10:53:02;;;;;;;16.10;4.30;;;6.40;99.90;;;;;;4989338;28;20448;-76
2022/01/30 10:55:40;;;;;;;19.63;5.23;;;6.40;99.90;;;;;;4989457;28;20417;-76
2022/01/30 10:58:12;;;;;;;16.80;3.03;;;6.40;99.90;;;;;;4990099;28;20417;-76
2022/01/30 11:00:43;;;;;;;14.27;5.00;;;6.50;99.90;;;;;;4988290;28;20424;-77
2022/01/30 11:03:30;;;;;;;14.10;3.50;;;6.40;99.90;;;;;;4988890;28;20436;-77
2022/01/30 11:06:00;;;;;;;12.97;3.70;;;6.70;99.90;;;;;;4989427;28;20516;-77
2022/01/30 11:08:30;;;;;;;8.20;3.13;;;6.70;99.90;;;;;;4989486;28;20414;-77
2022/01/30 11:11:01;;;;;;;12.60;2.70;;;6.60;99.90;;;;;;4988055;28;20894;-77
2022/01/30 11:13:46;;;;;;;9.03;2.93;;;6.40;99.90;;;;;;4987972;28;20409;-76
2022/01/30 11:18:58;;;;;;;6.00;1.93;;;6.40;99.90;;;;;;4987991;28;20592;-77
2022/01/30 11:21:26;;;;;;;9.40;2.20;;;6.50;99.90;;;;;;4987573;28;20472;-77
2022/01/30 11:23:53;;;;;;;7.13;1.83;;;6.70;99.90;;;;;;4988901;28;20417;-77
2022/01/30 11:26:19;;;;;;;12.37;2.93;;;7.00;99.90;;;;;;4988509;28;20720;-77
2022/01/30 11:28:45;;;;;;;12.17;2.27;;;7.40;99.90;;;;;;4988517;28;20910;-77
2022/01/30 11:31:15;;;;;;;20.30;2.70;;;7.50;99.90;;;;;;4987230;28;20519;-77
2022/01/30 11:33:41;;;;;;;9.07;2.47;;;7.80;99.90;;;;;;4989007;28;20504;-78
2022/01/30 11:36:07;;;;;;;6.83;1.97;;;7.90;99.90;;;;;;4988902;28;20533;-77
2022/01/30 11:38:35;;;;;;;4.37;1.73;;;7.90;99.90;;;;;;4988616;28;20284;-78
2022/01/30 11:41:10;;;;;;;9.07;2.40;;;8.00;99.90;;;;;;4988449;28;20879;-78
2022/01/30 11:43:35;;;;;;;9.20;2.40;;;8.10;99.90;;;;;;4988121;28;20421;-77
2022/01/30 11:46:15;;;;;;;7.57;2.13;;;8.60;99.80;;;;;;4988199;28;20982;-77
2022/01/30 11:48:41;;;;;;;16.80;2.30;;;8.80;99.40;;;;;;4986872;28;20205;-77
2022/01/30 11:51:07;;;;;;;9.73;2.20;;;8.60;99.60;;;;;;4988295;28;20450;-77
2022/01/30 11:53:33;;;;;;;13.77;3.53;;;8.30;99.90;;;;;;4988375;28;20477;-77
2022/01/30 11:56:01;;;;;;;9.27;2.87;;;8.20;99.60;;;;;;4991761;28;20878;-78
2022/01/30 11:58:30;;;;;;;8.63;2.20;;;8.60;99.90;;;;;;4991899;28;20809;-77
2022/01/30 12:00:57;;;;;;;8.80;2.07;;;9.70;98.60;;;;;;4991777;28;20416;-77
2022/01/30 12:03:28;;;;;;;8.00;1.87;;;10.40;96.00;;;;;;4990147;28;20429;-77
2022/01/30 12:05:57;;;;;;;8.60;2.27;;;10.90;95.20;;;;;;4992510;28;20445;-78
2022/01/30 12:08:45;;;;;;;12.33;2.50;;;11.20;95.10;;;;;;4991800;28;20476;-77
2022/01/30 12:11:43;;;;;;;7.23;1.77;;;11.70;93.00;;;;;;4991453;28;20420;-77
2022/01/30 12:14:21;;;;;;;8.97;2.47;;;11.40;94.30;;;;;;4991109;28;20528;-77
2022/01/30 12:16:52;;;;;;;12.80;2.77;;;11.10;92.80;;;;;;4991358;28;20520;-76
2022/01/30 12:19:39;;;;;;;8.03;2.43;;;10.80;94.20;;;;;;4989592;28;20474;-77
2022/01/30 12:22:16;;;;;;;8.43;2.27;;;10.80;92.70;;;;;;4991260;28;20791;-77
2022/01/30 12:24:53;;;;;;;15.50;3.43;;;10.00;93.10;;;;;;4990876;28;20517;-77
2022/01/30 12:27:19;;;;;;;10.00;2.30;;;9.40;95.20;;;;;;4990922;28;20871;-77
2022/01/30 12:29:48;;;;;;;11.30;2.73;;;8.90;96.90;;;;;;4989165;28;20440;-77
2022/01/30 12:32:22;;;;;;;12.03;2.93;;;8.50;97.90;;;;;;4988990;28;20476;-77
2022/01/30 12:35:00;;;;;;;11.27;2.20;;;8.50;98.40;;;;;;4990373;28;20833;-77
2022/01/30 12:37:28;;;;;;;12.73;2.50;;;8.30;98.10;;;;;;4991654;28;20818;-76
2022/01/30 12:39:54;;;;;;;10.93;2.60;;;8.10;99.70;;;;;;4990974;28;20546;-77
2022/01/30 12:42:22;;;;;;;6.10;1.80;;;8.10;99.90;;;;;;4990844;28;20911;-77
2022/01/30 12:44:48;;;;;;;12.27;2.97;;;8.10;99.90;;;;;;4990732;28;21166;-77
2022/01/30 12:47:15;;;;;;;13.80;2.70;;;8.00;99.90;;;;;;4990730;28;20917;-77
2022/01/30 12:49:47;;;;;;;9.20;3.30;;;7.90;99.90;;;;;;4990771;28;20428;-77
2022/01/30 12:52:22;;;;;;;10.50;2.63;;;7.90;99.80;;;;;;4989246;28;20485;-77
2022/01/30 12:54:50;;;;;;;8.33;2.47;;;7.90;99.90;;;;;;4989555;28;20424;-76
2022/01/30 12:57:18;;;;;;;7.90;3.00;;;7.80;99.90;;;;;;4989320;28;20437;-76
2022/01/30 12:59:58;;;;;;;10.33;3.60;;;7.70;99.90;;;;;;4989290;28;20465;-77
2022/01/30 13:02:33;;;;;;;12.17;3.40;;;7.60;99.90;;;;;;4990590;28;20413;-77
2022/01/30 13:05:02;;;;;;;15.77;3.10;;;7.50;99.90;;;;;;4973589;28;20424;-77
2022/01/30 13:07:28;;;;;;;10.03;3.00;;;7.30;99.90;;;;;;4990659;28;20537;-77
2022/01/30 13:10:04;;;;;;;10.27;2.67;;;7.30;99.90;;;;;;4988879;28;20448;-76
2022/01/30 13:12:32;;;;;;;8.43;2.17;;;7.20;99.90;;;;;;4990000;28;20228;-77
2022/01/30 13:14:57;;;;;;;9.33;2.30;;;7.00;99.90;;;;;;4972563;28;20550;-77
2022/01/30 13:17:30;;;;;;;4.70;1.90;;;6.90;99.90;;;;;;4988407;28;20544;-77
2022/01/30 13:19:56;;;;;;;7.70;2.43;;;6.80;99.90;;;;;;4989615;28;20245;-77
2022/01/30 13:22:33;;;;;;;9.83;2.37;;;6.80;99.90;;;;;;4989775;28;21231;-77
2022/01/30 13:25:01;;;;;;;8.23;2.67;;;6.80;99.90;;;;;;4989784;28;20918;-76
2022/01/30 13:27:26;;;;;;;10.40;2.07;;;6.90;99.90;;;;;;4987912;28;20977;-77
2022/01/30 13:29:55;;;;;;;10.50;2.60;;;7.10;99.90;;;;;;4993590;28;20418;-76
2022/01/30 13:32:23;;;;;;;12.20;2.60;;;7.30;99.90;;;;;;5002165;28;20193;-76
2022/01/30 13:34:49;;;;;;;9.23;2.67;;;7.20;99.20;;;;;;4989810;28;20429;-77
2022/01/30 13:37:18;;;;;;;9.70;2.67;;;7.50;99.20;;;;;;4989585;28;20452;-76
2022/01/30 13:47:52;;;;;;;12.60;2.83;;;7.70;99.10;;;;;;4989738;28;20947;-77
2022/01/30 13:50:20;;;;;;;8.37;1.90;;;7.80;99.70;;;;;;4989604;28;20799;-77
2022/01/30 13:52:46;;;;;;;11.07;2.80;;;8.30;99.80;;;;;;4987853;28;20539;-77
2022/01/30 13:55:12;;;;;;;11.03;2.67;;;8.90;98.20;;;;;;4988114;28;20524;-77
2022/01/30 13:57:40;;;;;;;8.20;2.50;;;9.00;97.30;;;;;;4989326;28;20209;-77
2022/01/30 14:00:12;;;;;;;9.10;2.63;;;8.80;97.20;;;;;;4989407;28;20465;-77
2022/01/30 14:03:05;;;;;;;7.23;2.60;;;8.60;97.30;;;;;;4988314;28;20417;-78
2022/01/30 14:05:38;;;;;;;10.60;3.00;;;8.50;97.60;;;;;;4989472;28;20413;-76
2022/01/30 14:08:10;;;;;;;14.40;3.13;;;8.40;98.60;;;;;;4989822;28;20420;-78
2022/01/30 14:10:36;;;;;;;17.13;2.77;;;8.30;98.50;;;;;;4971835;28;20433;-77